首页
METAR-TAF:

METAR-TAF

机场 :

台拉登, 印度

纬度: 30-11-23N, 经度: 78-10-49E, 海拔: 558米

METAR: 丢失

时间: 14:20 (08:50 UTC)

预报

该预报发布于9小时和50分钟前的23:00 UTC
预报有效从01日的 00点(UTC)到 01日的 09点(UTC)
风速5节,风向西
能見度: 5000
散云层高于3000英尺
多云层高于8000英尺
轻雾, 小雨
成为
从 01日的 06点(UTC)到 01日的 08点(UTC)
能見度: 6000
散云层高于3500英尺
散云层高于9000英尺

TAF: VIDN 312300Z 0100/0109 27005KT 5000 BR -RA SCT030 BKN080 BECMG 0106/0108 6000 SCT035 SCT090

超过4000个机场的气象观测和天气预报(METAR&TAF报告)。

可查询的气象台以黄色和红色小点在地图上表示。

将鼠标移到小点上方,可查看气象台名称。

然后点击查看天气观测和预报。

如需切换地图:点击带黑十字的绿色按钮放大地图;点击带横线的绿色按钮缩小地图;或者点击绿色箭头查看邻近地区的地图。


METAR-TAF: